sensor_id;sensor_type;location;lat;lon;timestamp;P1;durP1;ratioP1;P2;durP2;ratioP2
15112;SDS011;7657;50.140;7.076;2023-12-04T00:01:34;11.33;;;6.57;;
15112;SDS011;7657;50.140;7.076;2023-12-04T00:04:01;10.60;;;6.37;;
15112;SDS011;7657;50.140;7.076;2023-12-04T00:06:29;8.90;;;5.90;;
15112;SDS011;7657;50.140;7.076;2023-12-04T00:08:56;9.97;;;6.27;;
15112;SDS011;7657;50.140;7.076;2023-12-04T00:11:23;10.63;;;6.20;;
15112;SDS011;7657;50.140;7.076;2023-12-04T00:13:49;8.73;;;5.50;;
15112;SDS011;7657;50.140;7.076;2023-12-04T00:16:17;10.17;;;6.27;;
15112;SDS011;7657;50.140;7.076;2023-12-04T00:18:44;9.03;;;6.10;;
15112;SDS011;7657;50.140;7.076;2023-12-04T00:21:12;10.23;;;6.03;;
15112;SDS011;7657;50.140;7.076;2023-12-04T00:23:40;8.63;;;5.73;;
15112;SDS011;7657;50.140;7.076;2023-12-04T00:26:07;9.27;;;5.93;;
15112;SDS011;7657;50.140;7.076;2023-12-04T00:28:35;8.97;;;5.80;;
15112;SDS011;7657;50.140;7.076;2023-12-04T00:31:02;9.53;;;5.97;;
15112;SDS011;7657;50.140;7.076;2023-12-04T00:33:30;9.93;;;5.60;;
15112;SDS011;7657;50.140;7.076;2023-12-04T00:35:57;8.77;;;5.77;;
15112;SDS011;7657;50.140;7.076;2023-12-04T00:38:24;9.57;;;6.23;;
15112;SDS011;7657;50.140;7.076;2023-12-04T00:40:52;9.47;;;6.17;;
15112;SDS011;7657;50.140;7.076;2023-12-04T00:43:19;9.27;;;6.47;;
15112;SDS011;7657;50.140;7.076;2023-12-04T00:45:46;8.47;;;5.67;;
15112;SDS011;7657;50.140;7.076;2023-12-04T00:48:12;8.43;;;5.83;;
15112;SDS011;7657;50.140;7.076;2023-12-04T00:50:39;9.00;;;6.03;;
15112;SDS011;7657;50.140;7.076;2023-12-04T00:53:06;9.97;;;6.07;;
15112;SDS011;7657;50.140;7.076;2023-12-04T00:55:33;11.07;;;6.50;;
15112;SDS011;7657;50.140;7.076;2023-12-04T00:58:01;9.50;;;6.40;;
15112;SDS011;7657;50.140;7.076;2023-12-04T01:00:28;10.53;;;6.30;;
15112;SDS011;7657;50.140;7.076;2023-12-04T01:02:55;10.53;;;6.20;;
15112;SDS011;7657;50.140;7.076;2023-12-04T01:05:22;9.70;;;6.47;;
15112;SDS011;7657;50.140;7.076;2023-12-04T01:07:49;10.37;;;6.23;;
15112;SDS011;7657;50.140;7.076;2023-12-04T01:10:16;9.27;;;5.90;;
15112;SDS011;7657;50.140;7.076;2023-12-04T01:12:43;10.17;;;6.53;;
15112;SDS011;7657;50.140;7.076;2023-12-04T01:15:11;10.00;;;6.00;;
15112;SDS011;7657;50.140;7.076;2023-12-04T01:17:38;9.93;;;6.07;;
15112;SDS011;7657;50.140;7.076;2023-12-04T01:20:05;9.77;;;6.00;;
15112;SDS011;7657;50.140;7.076;2023-12-04T01:22:33;10.67;;;6.87;;
15112;SDS011;7657;50.140;7.076;2023-12-04T01:25:00;9.90;;;6.43;;
15112;SDS011;7657;50.140;7.076;2023-12-04T01:27:28;8.83;;;6.27;;
15112;SDS011;7657;50.140;7.076;2023-12-04T01:29:55;10.33;;;6.03;;
15112;SDS011;7657;50.140;7.076;2023-12-04T01:32:23;10.53;;;6.80;;
15112;SDS011;7657;50.140;7.076;2023-12-04T01:34:50;10.37;;;6.70;;
15112;SDS011;7657;50.140;7.076;2023-12-04T01:37:17;11.40;;;6.80;;
15112;SDS011;7657;50.140;7.076;2023-12-04T01:39:44;10.13;;;6.30;;
15112;SDS011;7657;50.140;7.076;2023-12-04T01:42:11;10.77;;;6.80;;
15112;SDS011;7657;50.140;7.076;2023-12-04T01:44:38;9.83;;;6.70;;
15112;SDS011;7657;50.140;7.076;2023-12-04T01:47:05;12.97;;;7.20;;
15112;SDS011;7657;50.140;7.076;2023-12-04T01:49:34;11.73;;;6.70;;
15112;SDS011;7657;50.140;7.076;2023-12-04T01:52:01;11.33;;;7.40;;
15112;SDS011;7657;50.140;7.076;2023-12-04T01:54:30;13.23;;;7.20;;
15112;SDS011;7657;50.140;7.076;2023-12-04T01:56:57;11.10;;;7.40;;
15112;SDS011;7657;50.140;7.076;2023-12-04T01:59:24;11.53;;;7.20;;
15112;SDS011;7657;50.140;7.076;2023-12-04T02:01:52;11.60;;;7.30;;
15112;SDS011;7657;50.140;7.076;2023-12-04T02:04:20;11.57;;;7.33;;
15112;SDS011;7657;50.140;7.076;2023-12-04T02:06:48;12.93;;;7.67;;
15112;SDS011;7657;50.140;7.076;2023-12-04T02:09:15;13.00;;;7.83;;
15112;SDS011;7657;50.140;7.076;2023-12-04T02:11:42;12.50;;;7.73;;
15112;SDS011;7657;50.140;7.076;2023-12-04T02:14:09;13.37;;;8.73;;
15112;SDS011;7657;50.140;7.076;2023-12-04T02:16:38;13.43;;;8.33;;
15112;SDS011;7657;50.140;7.076;2023-12-04T02:19:07;11.93;;;7.63;;
15112;SDS011;7657;50.140;7.076;2023-12-04T02:21:35;13.67;;;7.80;;
15112;SDS011;7657;50.140;7.076;2023-12-04T02:24:03;11.57;;;7.20;;
15112;SDS011;7657;50.140;7.076;2023-12-04T02:26:31;11.03;;;7.43;;
15112;SDS011;7657;50.140;7.076;2023-12-04T02:29:02;13.93;;;8.07;;
15112;SDS011;7657;50.140;7.076;2023-12-04T02:31:34;12.93;;;7.53;;
15112;SDS011;7657;50.140;7.076;2023-12-04T02:34:03;12.00;;;7.50;;
15112;SDS011;7657;50.140;7.076;2023-12-04T02:36:33;12.53;;;7.57;;
15112;SDS011;7657;50.140;7.076;2023-12-04T02:39:01;11.00;;;6.77;;
15112;SDS011;7657;50.140;7.076;2023-12-04T02:41:30;14.17;;;8.03;;
15112;SDS011;7657;50.140;7.076;2023-12-04T02:43:56;10.93;;;7.30;;
15112;SDS011;7657;50.140;7.076;2023-12-04T02:46:24;12.60;;;7.27;;
15112;SDS011;7657;50.140;7.076;2023-12-04T02:48:50;11.70;;;7.43;;
15112;SDS011;7657;50.140;7.076;2023-12-04T02:51:17;12.47;;;7.70;;
15112;SDS011;7657;50.140;7.076;2023-12-04T02:53:44;12.00;;;7.33;;
15112;SDS011;7657;50.140;7.076;2023-12-04T02:56:11;12.80;;;7.70;;
15112;SDS011;7657;50.140;7.076;2023-12-04T02:58:39;13.93;;;8.20;;
15112;SDS011;7657;50.140;7.076;2023-12-04T03:01:06;12.37;;;7.83;;
15112;SDS011;7657;50.140;7.076;2023-12-04T03:03:33;13.03;;;7.63;;
15112;SDS011;7657;50.140;7.076;2023-12-04T03:06:00;10.80;;;7.10;;
15112;SDS011;7657;50.140;7.076;2023-12-04T03:08:27;11.30;;;7.20;;
15112;SDS011;7657;50.140;7.076;2023-12-04T03:10:54;13.73;;;7.47;;
15112;SDS011;7657;50.140;7.076;2023-12-04T03:13:21;11.83;;;7.53;;
15112;SDS011;7657;50.140;7.076;2023-12-04T03:15:49;10.40;;;6.50;;
15112;SDS011;7657;50.140;7.076;2023-12-04T03:18:16;11.13;;;6.90;;
15112;SDS011;7657;50.140;7.076;2023-12-04T03:20:43;12.10;;;7.20;;
15112;SDS011;7657;50.140;7.076;2023-12-04T03:23:09;12.33;;;7.37;;
15112;SDS011;7657;50.140;7.076;2023-12-04T03:25:36;11.37;;;6.50;;
15112;SDS011;7657;50.140;7.076;2023-12-04T03:28:03;11.37;;;6.73;;
15112;SDS011;7657;50.140;7.076;2023-12-04T03:30:30;11.17;;;6.63;;
15112;SDS011;7657;50.140;7.076;2023-12-04T03:32:58;11.37;;;6.60;;
15112;SDS011;7657;50.140;7.076;2023-12-04T03:35:26;11.53;;;7.13;;
15112;SDS011;7657;50.140;7.076;2023-12-04T03:37:53;10.60;;;6.53;;
15112;SDS011;7657;50.140;7.076;2023-12-04T03:40:20;10.87;;;6.50;;
15112;SDS011;7657;50.140;7.076;2023-12-04T03:42:46;10.37;;;6.60;;
15112;SDS011;7657;50.140;7.076;2023-12-04T03:45:13;11.77;;;6.97;;
15112;SDS011;7657;50.140;7.076;2023-12-04T03:47:40;12.20;;;7.27;;
15112;SDS011;7657;50.140;7.076;2023-12-04T03:50:09;11.77;;;6.83;;
15112;SDS011;7657;50.140;7.076;2023-12-04T03:52:36;11.97;;;6.80;;
15112;SDS011;7657;50.140;7.076;2023-12-04T03:55:03;10.43;;;6.70;;
15112;SDS011;7657;50.140;7.076;2023-12-04T03:57:30;9.87;;;6.67;;
15112;SDS011;7657;50.140;7.076;2023-12-04T03:59:57;10.37;;;6.83;;
15112;SDS011;7657;50.140;7.076;2023-12-04T04:02:24;10.57;;;6.70;;
15112;SDS011;7657;50.140;7.076;2023-12-04T04:04:51;11.43;;;6.67;;
15112;SDS011;7657;50.140;7.076;2023-12-04T04:07:19;10.37;;;7.10;;
15112;SDS011;7657;50.140;7.076;2023-12-04T04:09:46;12.53;;;7.07;;
15112;SDS011;7657;50.140;7.076;2023-12-04T04:12:13;11.27;;;6.93;;
15112;SDS011;7657;50.140;7.076;2023-12-04T04:14:40;11.40;;;7.13;;
15112;SDS011;7657;50.140;7.076;2023-12-04T04:17:07;10.70;;;6.47;;
15112;SDS011;7657;50.140;7.076;2023-12-04T04:19:34;9.57;;;6.07;;
15112;SDS011;7657;50.140;7.076;2023-12-04T04:22:01;10.43;;;6.47;;
15112;SDS011;7657;50.140;7.076;2023-12-04T04:24:29;10.63;;;6.60;;
15112;SDS011;7657;50.140;7.076;2023-12-04T04:26:56;11.00;;;6.67;;
15112;SDS011;7657;50.140;7.076;2023-12-04T04:29:23;10.77;;;6.80;;
15112;SDS011;7657;50.140;7.076;2023-12-04T04:31:50;11.67;;;7.30;;
15112;SDS011;7657;50.140;7.076;2023-12-04T04:34:17;11.80;;;7.67;;
15112;SDS011;7657;50.140;7.076;2023-12-04T04:36:44;12.17;;;7.20;;
15112;SDS011;7657;50.140;7.076;2023-12-04T04:39:11;11.57;;;7.53;;
15112;SDS011;7657;50.140;7.076;2023-12-04T04:41:40;12.97;;;8.10;;
15112;SDS011;7657;50.140;7.076;2023-12-04T04:44:07;14.67;;;8.93;;
15112;SDS011;7657;50.140;7.076;2023-12-04T04:46:34;14.23;;;8.97;;
15112;SDS011;7657;50.140;7.076;2023-12-04T04:49:01;11.87;;;7.53;;
15112;SDS011;7657;50.140;7.076;2023-12-04T04:51:31;10.40;;;7.20;;
15112;SDS011;7657;50.140;7.076;2023-12-04T04:53:58;12.37;;;7.53;;
15112;SDS011;7657;50.140;7.076;2023-12-04T04:56:25;12.77;;;8.47;;
15112;SDS011;7657;50.140;7.076;2023-12-04T04:58:53;11.90;;;8.00;;
15112;SDS011;7657;50.140;7.076;2023-12-04T05:01:20;11.33;;;7.23;;
15112;SDS011;7657;50.140;7.076;2023-12-04T05:03:47;11.13;;;6.53;;
15112;SDS011;7657;50.140;7.076;2023-12-04T05:06:14;10.27;;;6.77;;
15112;SDS011;7657;50.140;7.076;2023-12-04T05:08:41;10.27;;;6.63;;
15112;SDS011;7657;50.140;7.076;2023-12-04T05:11:08;10.87;;;6.60;;
15112;SDS011;7657;50.140;7.076;2023-12-04T05:13:35;13.03;;;7.30;;
15112;SDS011;7657;50.140;7.076;2023-12-04T05:16:03;11.90;;;7.37;;
15112;SDS011;7657;50.140;7.076;2023-12-04T05:18:31;11.40;;;7.47;;
15112;SDS011;7657;50.140;7.076;2023-12-04T05:20:58;11.63;;;6.77;;
15112;SDS011;7657;50.140;7.076;2023-12-04T05:23:25;13.53;;;8.80;;
15112;SDS011;7657;50.140;7.076;2023-12-04T05:25:51;11.97;;;7.93;;
15112;SDS011;7657;50.140;7.076;2023-12-04T05:28:18;11.23;;;7.10;;
15112;SDS011;7657;50.140;7.076;2023-12-04T05:30:45;11.13;;;6.93;;
15112;SDS011;7657;50.140;7.076;2023-12-04T05:33:14;11.20;;;7.10;;
15112;SDS011;7657;50.140;7.076;2023-12-04T05:35:41;10.17;;;7.00;;
15112;SDS011;7657;50.140;7.076;2023-12-04T05:38:07;10.00;;;6.47;;
15112;SDS011;7657;50.140;7.076;2023-12-04T05:40:34;11.33;;;7.03;;
15112;SDS011;7657;50.140;7.076;2023-12-04T05:43:01;10.07;;;6.83;;
15112;SDS011;7657;50.140;7.076;2023-12-04T05:45:28;10.53;;;7.00;;
15112;SDS011;7657;50.140;7.076;2023-12-04T05:47:55;10.83;;;6.50;;
15112;SDS011;7657;50.140;7.076;2023-12-04T05:50:23;10.97;;;6.80;;
15112;SDS011;7657;50.140;7.076;2023-12-04T05:52:50;12.67;;;7.10;;
15112;SDS011;7657;50.140;7.076;2023-12-04T05:55:17;10.10;;;6.73;;
15112;SDS011;7657;50.140;7.076;2023-12-04T05:57:45;10.93;;;6.70;;
15112;SDS011;7657;50.140;7.076;2023-12-04T06:00:12;9.80;;;6.80;;
15112;SDS011;7657;50.140;7.076;2023-12-04T06:02:40;9.83;;;6.80;;
15112;SDS011;7657;50.140;7.076;2023-12-04T06:05:08;9.53;;;6.50;;
15112;SDS011;7657;50.140;7.076;2023-12-04T06:07:37;11.30;;;6.97;;
15112;SDS011;7657;50.140;7.076;2023-12-04T06:10:04;10.97;;;7.10;;
15112;SDS011;7657;50.140;7.076;2023-12-04T06:12:32;10.40;;;6.20;;
15112;SDS011;7657;50.140;7.076;2023-12-04T06:14:59;11.47;;;6.87;;
15112;SDS011;7657;50.140;7.076;2023-12-04T06:17:26;10.40;;;6.90;;
15112;SDS011;7657;50.140;7.076;2023-12-04T06:19:53;12.07;;;6.60;;
15112;SDS011;7657;50.140;7.076;2023-12-04T06:22:20;9.63;;;6.47;;
15112;SDS011;7657;50.140;7.076;2023-12-04T06:24:49;10.60;;;6.70;;
15112;SDS011;7657;50.140;7.076;2023-12-04T06:27:17;10.40;;;6.97;;
15112;SDS011;7657;50.140;7.076;2023-12-04T06:29:45;9.93;;;6.60;;
15112;SDS011;7657;50.140;7.076;2023-12-04T06:32:14;9.30;;;6.40;;
15112;SDS011;7657;50.140;7.076;2023-12-04T06:34:41;10.97;;;6.93;;
15112;SDS011;7657;50.140;7.076;2023-12-04T06:37:09;10.80;;;6.70;;
15112;SDS011;7657;50.140;7.076;2023-12-04T06:39:38;10.40;;;6.37;;
15112;SDS011;7657;50.140;7.076;2023-12-04T06:42:07;9.70;;;6.40;;
15112;SDS011;7657;50.140;7.076;2023-12-04T06:44:36;8.77;;;5.73;;
15112;SDS011;7657;50.140;7.076;2023-12-04T06:47:03;8.87;;;5.83;;
15112;SDS011;7657;50.140;7.076;2023-12-04T06:49:34;9.70;;;6.10;;
15112;SDS011;7657;50.140;7.076;2023-12-04T06:52:00;8.47;;;5.63;;
15112;SDS011;7657;50.140;7.076;2023-12-04T06:54:27;8.43;;;5.93;;
15112;SDS011;7657;50.140;7.076;2023-12-04T06:56:54;9.10;;;6.17;;
15112;SDS011;7657;50.140;7.076;2023-12-04T06:59:23;9.07;;;5.97;;
15112;SDS011;7657;50.140;7.076;2023-12-04T07:01:49;10.40;;;7.23;;
15112;SDS011;7657;50.140;7.076;2023-12-04T07:04:16;10.40;;;6.73;;
15112;SDS011;7657;50.140;7.076;2023-12-04T07:06:46;9.37;;;6.50;;
15112;SDS011;7657;50.140;7.076;2023-12-04T07:09:14;9.07;;;6.43;;
15112;SDS011;7657;50.140;7.076;2023-12-04T07:11:42;11.03;;;6.70;;
15112;SDS011;7657;50.140;7.076;2023-12-04T07:14:09;8.43;;;5.83;;
15112;SDS011;7657;50.140;7.076;2023-12-04T07:16:41;9.50;;;6.07;;
15112;SDS011;7657;50.140;7.076;2023-12-04T07:19:09;9.93;;;6.27;;
15112;SDS011;7657;50.140;7.076;2023-12-04T07:21:36;8.87;;;6.53;;
15112;SDS011;7657;50.140;7.076;2023-12-04T07:24:04;8.87;;;6.17;;
15112;SDS011;7657;50.140;7.076;2023-12-04T07:26:31;8.40;;;5.93;;
15112;SDS011;7657;50.140;7.076;2023-12-04T07:28:59;8.47;;;6.13;;
15112;SDS011;7657;50.140;7.076;2023-12-04T07:31:26;11.90;;;7.57;;
15112;SDS011;7657;50.140;7.076;2023-12-04T07:33:55;8.40;;;5.67;;
15112;SDS011;7657;50.140;7.076;2023-12-04T07:36:22;9.07;;;6.00;;
15112;SDS011;7657;50.140;7.076;2023-12-04T07:38:50;10.17;;;6.10;;
15112;SDS011;7657;50.140;7.076;2023-12-04T07:41:19;7.90;;;5.53;;
15112;SDS011;7657;50.140;7.076;2023-12-04T07:43:46;10.13;;;6.03;;
15112;SDS011;7657;50.140;7.076;2023-12-04T07:46:12;7.70;;;6.03;;
15112;SDS011;7657;50.140;7.076;2023-12-04T07:48:40;9.30;;;5.50;;
15112;SDS011;7657;50.140;7.076;2023-12-04T07:51:09;8.73;;;5.70;;
15112;SDS011;7657;50.140;7.076;2023-12-04T07:53:36;9.50;;;6.00;;
15112;SDS011;7657;50.140;7.076;2023-12-04T07:56:03;9.17;;;5.63;;
15112;SDS011;7657;50.140;7.076;2023-12-04T07:58:32;7.93;;;5.07;;
15112;SDS011;7657;50.140;7.076;2023-12-04T08:00:59;11.37;;;7.07;;
15112;SDS011;7657;50.140;7.076;2023-12-04T08:03:27;8.30;;;5.37;;
15112;SDS011;7657;50.140;7.076;2023-12-04T08:05:54;8.60;;;5.40;;
15112;SDS011;7657;50.140;7.076;2023-12-04T08:08:22;8.53;;;5.33;;
15112;SDS011;7657;50.140;7.076;2023-12-04T08:10:49;7.30;;;4.50;;
15112;SDS011;7657;50.140;7.076;2023-12-04T08:13:16;7.27;;;5.20;;
15112;SDS011;7657;50.140;7.076;2023-12-04T08:15:43;7.37;;;5.10;;
15112;SDS011;7657;50.140;7.076;2023-12-04T08:18:10;8.93;;;5.47;;
15112;SDS011;7657;50.140;7.076;2023-12-04T08:20:37;7.73;;;5.50;;
15112;SDS011;7657;50.140;7.076;2023-12-04T08:23:04;7.43;;;5.30;;
15112;SDS011;7657;50.140;7.076;2023-12-04T08:25:32;8.60;;;5.60;;
15112;SDS011;7657;50.140;7.076;2023-12-04T08:28:01;9.63;;;6.10;;
15112;SDS011;7657;50.140;7.076;2023-12-04T08:30:28;9.13;;;5.90;;
15112;SDS011;7657;50.140;7.076;2023-12-04T08:32:55;9.30;;;6.83;;
15112;SDS011;7657;50.140;7.076;2023-12-04T08:35:22;8.17;;;5.90;;
15112;SDS011;7657;50.140;7.076;2023-12-04T08:37:49;9.40;;;6.13;;
15112;SDS011;7657;50.140;7.076;2023-12-04T08:40:16;8.63;;;5.40;;
15112;SDS011;7657;50.140;7.076;2023-12-04T08:42:45;9.10;;;6.20;;
15112;SDS011;7657;50.140;7.076;2023-12-04T08:45:11;9.27;;;4.80;;
15112;SDS011;7657;50.140;7.076;2023-12-04T08:47:37;10.60;;;5.87;;
15112;SDS011;7657;50.140;7.076;2023-12-04T08:50:05;10.87;;;6.67;;
15112;SDS011;7657;50.140;7.076;2023-12-04T08:52:32;8.63;;;5.97;;
15112;SDS011;7657;50.140;7.076;2023-12-04T08:54:59;11.57;;;7.47;;
15112;SDS011;7657;50.140;7.076;2023-12-04T08:57:26;11.53;;;6.80;;
15112;SDS011;7657;50.140;7.076;2023-12-04T08:59:55;9.73;;;6.13;;
15112;SDS011;7657;50.140;7.076;2023-12-04T09:02:21;11.37;;;6.97;;
15112;SDS011;7657;50.140;7.076;2023-12-04T09:04:48;11.43;;;7.00;;
15112;SDS011;7657;50.140;7.076;2023-12-04T09:07:15;9.63;;;6.43;;
15112;SDS011;7657;50.140;7.076;2023-12-04T09:09:42;10.63;;;6.87;;
15112;SDS011;7657;50.140;7.076;2023-12-04T09:12:09;10.17;;;6.87;;
15112;SDS011;7657;50.140;7.076;2023-12-04T09:14:36;11.00;;;6.93;;
15112;SDS011;7657;50.140;7.076;2023-12-04T09:17:04;10.03;;;6.90;;
15112;SDS011;7657;50.140;7.076;2023-12-04T09:19:31;10.23;;;6.83;;
15112;SDS011;7657;50.140;7.076;2023-12-04T09:21:58;11.67;;;7.17;;
15112;SDS011;7657;50.140;7.076;2023-12-04T09:24:25;10.43;;;7.50;;
15112;SDS011;7657;50.140;7.076;2023-12-04T09:26:52;12.23;;;7.50;;
15112;SDS011;7657;50.140;7.076;2023-12-04T09:29:20;11.93;;;7.77;;
15112;SDS011;7657;50.140;7.076;2023-12-04T09:31:49;10.77;;;7.47;;
15112;SDS011;7657;50.140;7.076;2023-12-04T09:34:18;10.33;;;6.93;;
15112;SDS011;7657;50.140;7.076;2023-12-04T09:36:45;12.13;;;7.57;;
15112;SDS011;7657;50.140;7.076;2023-12-04T09:39:13;10.97;;;7.13;;
15112;SDS011;7657;50.140;7.076;2023-12-04T09:41:41;13.27;;;8.73;;
15112;SDS011;7657;50.140;7.076;2023-12-04T09:44:09;12.20;;;8.83;;
15112;SDS011;7657;50.140;7.076;2023-12-04T09:46:36;12.50;;;8.23;;
15112;SDS011;7657;50.140;7.076;2023-12-04T09:49:04;11.87;;;7.93;;
15112;SDS011;7657;50.140;7.076;2023-12-04T09:51:34;11.87;;;7.60;;
15112;SDS011;7657;50.140;7.076;2023-12-04T09:54:01;11.10;;;7.47;;
15112;SDS011;7657;50.140;7.076;2023-12-04T09:56:29;12.37;;;7.90;;
15112;SDS011;7657;50.140;7.076;2023-12-04T09:58:58;10.93;;;7.67;;
15112;SDS011;7657;50.140;7.076;2023-12-04T10:01:26;12.87;;;8.10;;
15112;SDS011;7657;50.140;7.076;2023-12-04T10:03:56;13.13;;;8.13;;
15112;SDS011;7657;50.140;7.076;2023-12-04T10:06:23;11.40;;;7.97;;
15112;SDS011;7657;50.140;7.076;2023-12-04T10:08:55;14.20;;;8.10;;
15112;SDS011;7657;50.140;7.076;2023-12-04T10:11:23;11.93;;;8.27;;
15112;SDS011;7657;50.140;7.076;2023-12-04T10:13:51;12.03;;;8.07;;
15112;SDS011;7657;50.140;7.076;2023-12-04T10:16:31;12.60;;;8.40;;
15112;SDS011;7657;50.140;7.076;2023-12-04T10:19:13;11.10;;;7.57;;
15112;SDS011;7657;50.140;7.076;2023-12-04T10:21:42;19.97;;;13.77;;
15112;SDS011;7657;50.140;7.076;2023-12-04T10:24:10;13.17;;;9.13;;
15112;SDS011;7657;50.140;7.076;2023-12-04T10:26:38;12.40;;;8.70;;
15112;SDS011;7657;50.140;7.076;2023-12-04T10:29:15;12.17;;;8.13;;
15112;SDS011;7657;50.140;7.076;2023-12-04T10:31:42;14.87;;;8.97;;
15112;SDS011;7657;50.140;7.076;2023-12-04T10:34:09;12.83;;;7.90;;
15112;SDS011;7657;50.140;7.076;2023-12-04T10:36:36;13.33;;;8.37;;
15112;SDS011;7657;50.140;7.076;2023-12-04T10:39:03;11.70;;;8.13;;
15112;SDS011;7657;50.140;7.076;2023-12-04T10:41:32;12.37;;;8.17;;
15112;SDS011;7657;50.140;7.076;2023-12-04T10:43:59;12.03;;;7.87;;
15112;SDS011;7657;50.140;7.076;2023-12-04T10:46:26;11.83;;;8.90;;
15112;SDS011;7657;50.140;7.076;2023-12-04T10:48:54;12.97;;;9.23;;
15112;SDS011;7657;50.140;7.076;2023-12-04T10:51:24;13.07;;;8.10;;
15112;SDS011;7657;50.140;7.076;2023-12-04T10:53:53;13.07;;;9.17;;
15112;SDS011;7657;50.140;7.076;2023-12-04T10:56:24;12.53;;;7.53;;
15112;SDS011;7657;50.140;7.076;2023-12-04T10:58:57;13.47;;;9.03;;
15112;SDS011;7657;50.140;7.076;2023-12-04T11:01:25;12.20;;;8.17;;
15112;SDS011;7657;50.140;7.076;2023-12-04T11:03:52;12.17;;;7.83;;
15112;SDS011;7657;50.140;7.076;2023-12-04T11:06:22;12.50;;;8.67;;
15112;SDS011;7657;50.140;7.076;2023-12-04T11:08:52;13.23;;;8.13;;
15112;SDS011;7657;50.140;7.076;2023-12-04T11:11:25;11.20;;;7.83;;
15112;SDS011;7657;50.140;7.076;2023-12-04T11:13:58;11.73;;;7.97;;
15112;SDS011;7657;50.140;7.076;2023-12-04T11:16:28;10.93;;;7.53;;
15112;SDS011;7657;50.140;7.076;2023-12-04T11:19:02;11.90;;;7.80;;
15112;SDS011;7657;50.140;7.076;2023-12-04T11:21:39;10.77;;;7.23;;
15112;SDS011;7657;50.140;7.076;2023-12-04T11:24:06;12.60;;;8.33;;
15112;SDS011;7657;50.140;7.076;2023-12-04T11:26:34;11.60;;;7.60;;
15112;SDS011;7657;50.140;7.076;2023-12-04T11:29:03;12.27;;;7.93;;
15112;SDS011;7657;50.140;7.076;2023-12-04T11:31:31;10.70;;;7.33;;
15112;SDS011;7657;50.140;7.076;2023-12-04T11:34:01;10.60;;;7.30;;
15112;SDS011;7657;50.140;7.076;2023-12-04T11:36:28;9.30;;;6.70;;
15112;SDS011;7657;50.140;7.076;2023-12-04T11:38:56;11.17;;;7.13;;
15112;SDS011;7657;50.140;7.076;2023-12-04T11:41:23;10.93;;;7.17;;
15112;SDS011;7657;50.140;7.076;2023-12-04T11:43:51;10.73;;;7.33;;
15112;SDS011;7657;50.140;7.076;2023-12-04T11:46:20;10.23;;;7.40;;
15112;SDS011;7657;50.140;7.076;2023-12-04T11:48:48;11.43;;;7.17;;
15112;SDS011;7657;50.140;7.076;2023-12-04T11:54:16;12.83;;;7.80;;
15112;SDS011;7657;50.140;7.076;2023-12-04T11:56:55;11.07;;;7.33;;
15112;SDS011;7657;50.140;7.076;2023-12-04T11:59:24;10.47;;;7.27;;
15112;SDS011;7657;50.140;7.076;2023-12-04T12:01:54;10.67;;;6.97;;
15112;SDS011;7657;50.140;7.076;2023-12-04T12:04:22;11.93;;;7.30;;
15112;SDS011;7657;50.140;7.076;2023-12-04T12:06:49;9.87;;;6.30;;
15112;SDS011;7657;50.140;7.076;2023-12-04T12:09:17;9.77;;;7.00;;
15112;SDS011;7657;50.140;7.076;2023-12-04T12:11:44;10.17;;;6.73;;
15112;SDS011;7657;50.140;7.076;2023-12-04T12:14:11;9.30;;;6.03;;
15112;SDS011;7657;50.140;7.076;2023-12-04T12:16:39;9.73;;;6.20;;
15112;SDS011;7657;50.140;7.076;2023-12-04T12:19:08;9.73;;;6.43;;
15112;SDS011;7657;50.140;7.076;2023-12-04T12:21:34;10.50;;;7.03;;
15112;SDS011;7657;50.140;7.076;2023-12-04T12:24:05;9.43;;;6.27;;
15112;SDS011;7657;50.140;7.076;2023-12-04T12:26:33;9.43;;;6.33;;
15112;SDS011;7657;50.140;7.076;2023-12-04T12:29:00;9.90;;;6.50;;
15112;SDS011;7657;50.140;7.076;2023-12-04T12:31:26;9.60;;;6.53;;
15112;SDS011;7657;50.140;7.076;2023-12-04T12:33:55;10.37;;;6.50;;
15112;SDS011;7657;50.140;7.076;2023-12-04T12:36:23;9.27;;;6.20;;
15112;SDS011;7657;50.140;7.076;2023-12-04T12:38:50;9.80;;;6.03;;
15112;SDS011;7657;50.140;7.076;2023-12-04T12:41:17;8.87;;;6.27;;
15112;SDS011;7657;50.140;7.076;2023-12-04T12:43:45;9.00;;;6.00;;
15112;SDS011;7657;50.140;7.076;2023-12-04T12:46:13;7.97;;;5.30;;
15112;SDS011;7657;50.140;7.076;2023-12-04T12:48:40;8.97;;;6.23;;
15112;SDS011;7657;50.140;7.076;2023-12-04T12:51:09;9.23;;;6.20;;
15112;SDS011;7657;50.140;7.076;2023-12-04T12:53:38;8.43;;;5.87;;
15112;SDS011;7657;50.140;7.076;2023-12-04T12:56:06;8.57;;;6.07;;
15112;SDS011;7657;50.140;7.076;2023-12-04T12:58:33;10.03;;;6.57;;
15112;SDS011;7657;50.140;7.076;2023-12-04T13:01:00;9.13;;;6.63;;
15112;SDS011;7657;50.140;7.076;2023-12-04T13:03:28;9.33;;;6.33;;
15112;SDS011;7657;50.140;7.076;2023-12-04T13:05:56;9.53;;;6.20;;
15112;SDS011;7657;50.140;7.076;2023-12-04T13:08:22;8.63;;;5.97;;
15112;SDS011;7657;50.140;7.076;2023-12-04T13:10:51;8.17;;;5.80;;
15112;SDS011;7657;50.140;7.076;2023-12-04T13:13:19;9.23;;;5.90;;
15112;SDS011;7657;50.140;7.076;2023-12-04T13:15:46;9.27;;;6.67;;
15112;SDS011;7657;50.140;7.076;2023-12-04T13:18:13;9.07;;;5.67;;
15112;SDS011;7657;50.140;7.076;2023-12-04T13:20:40;8.27;;;6.03;;
15112;SDS011;7657;50.140;7.076;2023-12-04T13:23:08;7.27;;;5.77;;
15112;SDS011;7657;50.140;7.076;2023-12-04T13:25:35;8.53;;;6.23;;
15112;SDS011;7657;50.140;7.076;2023-12-04T13:28:03;7.97;;;5.70;;
15112;SDS011;7657;50.140;7.076;2023-12-04T13:30:30;9.07;;;5.97;;
15112;SDS011;7657;50.140;7.076;2023-12-04T13:32:59;8.57;;;6.03;;
15112;SDS011;7657;50.140;7.076;2023-12-04T13:35:26;8.63;;;6.17;;
15112;SDS011;7657;50.140;7.076;2023-12-04T13:37:53;9.83;;;6.17;;
15112;SDS011;7657;50.140;7.076;2023-12-04T13:40:24;9.83;;;6.23;;
15112;SDS011;7657;50.140;7.076;2023-12-04T13:42:53;9.17;;;5.77;;
15112;SDS011;7657;50.140;7.076;2023-12-04T13:45:44;8.43;;;5.50;;
15112;SDS011;7657;50.140;7.076;2023-12-04T13:48:11;7.70;;;5.50;;
15112;SDS011;7657;50.140;7.076;2023-12-04T13:50:40;8.57;;;5.40;;
15112;SDS011;7657;50.140;7.076;2023-12-04T13:53:07;8.10;;;5.60;;
15112;SDS011;7657;50.140;7.076;2023-12-04T13:55:34;9.33;;;6.13;;
15112;SDS011;7657;50.140;7.076;2023-12-04T13:58:12;8.03;;;5.60;;
15112;SDS011;7657;50.140;7.076;2023-12-04T14:01:04;8.33;;;5.40;;
15112;SDS011;7657;50.140;7.076;2023-12-04T14:03:38;6.80;;;5.07;;
15112;SDS011;7657;50.140;7.076;2023-12-04T14:06:06;7.93;;;5.30;;
15112;SDS011;7657;50.140;7.076;2023-12-04T14:08:33;9.10;;;5.67;;
15112;SDS011;7657;50.140;7.076;2023-12-04T14:11:00;7.93;;;5.40;;
15112;SDS011;7657;50.140;7.076;2023-12-04T14:13:27;7.30;;;5.37;;
15112;SDS011;7657;50.140;7.076;2023-12-04T14:15:54;6.40;;;4.80;;
15112;SDS011;7657;50.140;7.076;2023-12-04T14:18:23;6.87;;;4.87;;
15112;SDS011;7657;50.140;7.076;2023-12-04T14:20:50;6.57;;;4.87;;
15112;SDS011;7657;50.140;7.076;2023-12-04T14:23:17;8.00;;;5.63;;
15112;SDS011;7657;50.140;7.076;2023-12-04T14:25:45;6.67;;;5.13;;
15112;SDS011;7657;50.140;7.076;2023-12-04T14:28:13;7.13;;;5.33;;
15112;SDS011;7657;50.140;7.076;2023-12-04T14:30:40;7.23;;;5.03;;
15112;SDS011;7657;50.140;7.076;2023-12-04T14:33:07;6.57;;;4.73;;
15112;SDS011;7657;50.140;7.076;2023-12-04T14:35:35;7.13;;;5.13;;
15112;SDS011;7657;50.140;7.076;2023-12-04T14:38:02;6.93;;;4.70;;
15112;SDS011;7657;50.140;7.076;2023-12-04T14:40:30;6.57;;;4.77;;
15112;SDS011;7657;50.140;7.076;2023-12-04T14:42:57;6.87;;;4.70;;
15112;SDS011;7657;50.140;7.076;2023-12-04T14:45:24;6.87;;;5.10;;
15112;SDS011;7657;50.140;7.076;2023-12-04T14:47:51;6.40;;;4.77;;
15112;SDS011;7657;50.140;7.076;2023-12-04T14:50:21;6.40;;;4.93;;
15112;SDS011;7657;50.140;7.076;2023-12-04T14:52:50;7.27;;;4.60;;
15112;SDS011;7657;50.140;7.076;2023-12-04T14:55:19;8.10;;;4.60;;
15112;SDS011;7657;50.140;7.076;2023-12-04T14:58:04;7.73;;;4.80;;
15112;SDS011;7657;50.140;7.076;2023-12-04T15:01:07;6.23;;;4.60;;